Time;durP1;ratioP1;P1;durP2;ratioP2;P2;SDS_P1;SDS_P2;PMS_P1;PMS_P2;Temp;Humidity;BMP_temperature;BMP_pressure;BME280_temperature;BME280_humidity;BME280_pressure;Samples;Min_cycle;Max_cycle;Signal;HPM_P1;HPM_P2
2022/09/18 00:00:14;;;;;;;6.00;2.83;;;12.20;99.90;;;;;;5067748;28;20471;-79
2022/09/18 00:02:41;;;;;;;15.73;5.93;;;12.20;99.90;;;;;;5081620;28;20467;-80
2022/09/18 00:05:09;;;;;;;4.67;3.00;;;12.20;99.90;;;;;;5071025;28;20540;-80
2022/09/18 00:07:36;;;;;;;7.20;3.20;;;12.10;99.90;;;;;;5066883;28;20451;-80
2022/09/18 00:10:03;;;;;;;8.63;2.70;;;12.20;99.90;;;;;;5064178;28;20450;-80
2022/09/18 00:12:29;;;;;;;6.33;3.00;;;12.30;99.90;;;;;;5078647;28;20464;-79
2022/09/18 00:14:56;;;;;;;5.63;2.60;;;12.30;99.90;;;;;;5077631;28;20516;-79
2022/09/18 00:17:24;;;;;;;4.03;2.20;;;12.30;99.90;;;;;;5073639;28;20487;-80
2022/09/18 00:19:52;;;;;;;7.37;2.57;;;12.30;99.90;;;;;;5081266;28;20474;-79
2022/09/18 00:22:19;;;;;;;7.30;2.73;;;12.30;99.90;;;;;;5065157;28;20452;-81
2022/09/18 00:24:46;;;;;;;11.27;3.50;;;12.20;99.90;;;;;;5059062;28;20529;-79
2022/09/18 00:27:13;;;;;;;11.27;3.03;;;12.20;99.90;;;;;;5074837;28;20822;-80
2022/09/18 00:29:39;;;;;;;13.63;2.97;;;12.20;99.90;;;;;;5081194;28;20446;-80
2022/09/18 00:32:06;;;;;;;4.33;2.10;;;12.20;99.90;;;;;;5069386;28;20550;-80
2022/09/18 00:34:34;;;;;;;6.93;2.47;;;12.30;99.90;;;;;;5063137;28;20581;-78
2022/09/18 00:37:01;;;;;;;9.23;2.80;;;12.30;99.90;;;;;;5064567;28;20489;-78
2022/09/18 00:39:28;;;;;;;7.03;2.93;;;12.30;99.90;;;;;;5062118;28;20538;-80
2022/09/18 00:41:54;;;;;;;6.40;3.17;;;12.20;99.90;;;;;;5080720;28;20529;-79
2022/09/18 00:44:38;;;;;;;10.87;2.67;;;12.00;99.90;;;;;;5079539;28;20467;-77
2022/09/18 00:47:20;;;;;;;5.83;2.67;;;12.10;99.90;;;;;;5060182;28;20496;-79
2022/09/18 00:49:55;;;;;;;6.20;2.87;;;12.20;99.90;;;;;;5064753;28;20479;-78
2022/09/18 00:52:26;;;;;;;6.33;2.10;;;12.20;99.90;;;;;;5082979;28;20444;-79
2022/09/18 00:54:56;;;;;;;11.20;2.90;;;12.10;99.90;;;;;;5076747;28;20840;-80
2022/09/18 00:57:28;;;;;;;7.27;2.40;;;12.20;99.90;;;;;;5061383;28;20487;-81
2022/09/18 00:59:55;;;;;;;4.80;1.97;;;12.20;99.90;;;;;;5042222;28;20471;-80
2022/09/18 01:02:22;;;;;;;8.93;2.77;;;12.30;99.90;;;;;;5042498;28;20473;-78
2022/09/18 01:04:51;;;;;;;11.37;2.50;;;12.30;99.90;;;;;;5076198;28;20477;-78
2022/09/18 01:07:32;;;;;;;6.43;2.90;;;12.30;99.90;;;;;;5061471;28;20444;-79
2022/09/18 01:10:11;;;;;;;8.13;3.03;;;12.30;99.90;;;;;;5070394;28;20458;-78
2022/09/18 01:12:42;;;;;;;6.77;2.83;;;12.30;99.90;;;;;;5061207;28;20565;-79
2022/09/18 01:15:15;;;;;;;8.30;3.17;;;12.30;99.90;;;;;;5056895;28;21067;-78
2022/09/18 01:17:50;;;;;;;8.27;3.07;;;12.30;99.90;;;;;;5062127;28;20474;-79
2022/09/18 01:20:48;;;;;;;8.53;3.70;;;12.30;99.90;;;;;;5061783;28;20885;-78
2022/09/18 01:23:32;;;;;;;6.80;3.60;;;12.30;99.90;;;;;;5072688;28;20450;-79
2022/09/18 01:26:10;;;;;;;13.40;3.43;;;12.30;99.90;;;;;;5062713;28;20441;-79
2022/09/18 01:28:42;;;;;;;6.97;3.00;;;12.30;99.90;;;;;;5080646;28;20446;-79
2022/09/18 01:31:17;;;;;;;6.13;3.27;;;12.40;99.90;;;;;;5084127;28;20950;-80
2022/09/18 01:33:51;;;;;;;5.70;3.20;;;12.40;99.90;;;;;;5060873;28;20476;-81
2022/09/18 01:36:21;;;;;;;5.70;2.90;;;12.30;99.90;;;;;;5062755;28;20480;-79
2022/09/18 01:38:51;;;;;;;6.73;3.30;;;12.40;99.90;;;;;;5076521;28;20448;-80
2022/09/18 01:41:22;;;;;;;7.90;3.37;;;12.40;99.90;;;;;;5064728;28;20444;-78
2022/09/18 01:43:58;;;;;;;6.33;3.17;;;12.40;99.90;;;;;;5062302;28;20489;-79
2022/09/18 01:46:25;;;;;;;11.43;3.50;;;12.50;99.90;;;;;;5075658;28;20457;-80
2022/09/18 01:48:56;;;;;;;9.10;3.00;;;12.30;99.90;;;;;;5083419;28;21000;-80
2022/09/18 01:51:28;;;;;;;8.23;3.50;;;12.40;99.90;;;;;;5074527;28;20459;-80
2022/09/18 01:53:59;;;;;;;6.73;2.70;;;12.40;99.90;;;;;;5060105;28;20472;-80
2022/09/18 01:56:28;;;;;;;11.17;3.53;;;12.40;99.90;;;;;;5069609;28;20553;-79
2022/09/18 01:58:59;;;;;;;7.33;3.17;;;12.40;99.90;;;;;;5083461;28;20440;-80
2022/09/18 02:01:30;;;;;;;7.03;3.00;;;12.40;99.90;;;;;;5079309;28;20434;-79
2022/09/18 02:04:02;;;;;;;7.10;3.20;;;12.30;99.90;;;;;;5075848;28;20491;-77
2022/09/18 02:06:33;;;;;;;5.70;2.67;;;12.40;99.90;;;;;;5077167;28;20445;-78
2022/09/18 02:09:01;;;;;;;10.40;3.57;;;12.30;99.90;;;;;;5080444;28;20450;-79
2022/09/18 02:11:31;;;;;;;11.93;3.67;;;12.30;99.90;;;;;;5066006;28;20451;-79
2022/09/18 02:14:04;;;;;;;9.70;3.17;;;12.30;99.90;;;;;;5059585;28;20478;-80
2022/09/18 02:16:35;;;;;;;7.33;3.13;;;12.20;99.90;;;;;;5065171;28;20484;-79
2022/09/18 02:19:07;;;;;;;8.70;4.07;;;12.30;99.90;;;;;;5063865;28;20450;-79
2022/09/18 02:21:36;;;;;;;4.87;3.00;;;12.30;99.90;;;;;;5082819;28;20466;-80
2022/09/18 02:24:08;;;;;;;7.97;3.47;;;12.30;99.90;;;;;;5081210;28;20552;-80
2022/09/18 02:26:37;;;;;;;7.10;4.40;;;12.30;99.90;;;;;;5077631;28;20506;-79
2022/09/18 02:29:08;;;;;;;10.33;3.83;;;12.30;99.90;;;;;;5064057;28;20545;-79
2022/09/18 02:31:37;;;;;;;6.00;3.00;;;12.30;99.90;;;;;;5080988;28;20431;-80
2022/09/18 02:34:05;;;;;;;9.30;3.23;;;12.40;99.90;;;;;;5076542;28;20493;-80
2022/09/18 02:36:46;;;;;;;8.13;3.77;;;12.50;99.90;;;;;;5076793;28;20521;-79
2022/09/18 02:39:45;;;;;;;9.20;3.73;;;12.50;99.90;;;;;;5073973;28;20452;-80
2022/09/18 02:42:23;;;;;;;10.30;3.33;;;12.50;99.90;;;;;;5076740;28;20455;-78
2022/09/18 02:44:58;;;;;;;9.70;3.23;;;12.50;99.90;;;;;;5071497;28;20461;-80
2022/09/18 02:47:36;;;;;;;8.10;2.60;;;12.40;99.90;;;;;;5056821;28;20457;-81
2022/09/18 02:50:14;;;;;;;11.30;3.10;;;12.40;99.90;;;;;;5039293;28;20903;-81
2022/09/18 02:52:50;;;;;;;9.97;4.07;;;12.40;99.90;;;;;;5039651;28;20432;-81
2022/09/18 02:55:21;;;;;;;9.50;3.53;;;12.30;99.90;;;;;;5060818;28;20485;-78
2022/09/18 02:57:53;;;;;;;5.47;3.20;;;12.40;99.90;;;;;;5073970;28;20475;-80
2022/09/18 03:00:21;;;;;;;6.83;3.80;;;12.50;99.90;;;;;;5079642;28;20420;-78
2022/09/18 03:02:50;;;;;;;7.47;4.30;;;12.40;99.90;;;;;;5066603;28;20467;-80
2022/09/18 03:05:17;;;;;;;10.87;4.60;;;12.40;99.90;;;;;;5059105;28;20474;-79
2022/09/18 03:07:44;;;;;;;6.53;4.30;;;12.40;99.90;;;;;;5071360;28;20994;-81
2022/09/18 03:10:11;;;;;;;8.50;4.93;;;12.40;99.90;;;;;;5075524;28;20449;-80
2022/09/18 03:12:38;;;;;;;11.67;5.00;;;12.40;99.90;;;;;;5059504;28;20449;-80
2022/09/18 03:15:06;;;;;;;8.73;5.80;;;12.30;99.90;;;;;;5058178;28;20477;-78
2022/09/18 03:17:34;;;;;;;14.37;7.67;;;12.30;99.90;;;;;;5061574;28;20746;-79
2022/09/18 03:20:01;;;;;;;13.10;7.43;;;12.30;99.90;;;;;;5077526;28;20439;-78
2022/09/18 03:22:28;;;;;;;11.17;6.13;;;12.30;99.90;;;;;;5077448;28;20436;-80
2022/09/18 03:24:55;;;;;;;13.00;5.73;;;12.20;99.90;;;;;;5064660;28;20475;-81
2022/09/18 03:27:21;;;;;;;7.20;5.70;;;12.30;99.90;;;;;;5066839;28;20447;-80
2022/09/18 03:29:48;;;;;;;10.03;5.80;;;12.30;99.90;;;;;;5086684;28;20526;-79
2022/09/18 03:32:15;;;;;;;10.50;6.87;;;12.30;99.90;;;;;;5085615;28;20511;-81
2022/09/18 03:34:43;;;;;;;15.23;6.17;;;12.20;99.90;;;;;;5066154;28;20533;-80
2022/09/18 03:37:10;;;;;;;9.57;6.23;;;12.20;99.90;;;;;;5066406;28;20601;-80
2022/09/18 03:39:37;;;;;;;7.50;6.50;;;12.20;99.90;;;;;;5082964;28;20546;-82
2022/09/18 03:42:04;;;;;;;10.20;6.80;;;12.20;99.90;;;;;;5078436;28;20460;-81
2022/09/18 03:44:30;;;;;;;12.13;6.03;;;12.20;99.90;;;;;;5065204;28;20461;-81
2022/09/18 03:46:57;;;;;;;10.10;6.13;;;12.20;99.90;;;;;;5076685;28;20478;-81
2022/09/18 03:49:25;;;;;;;8.60;6.60;;;12.30;99.90;;;;;;5086247;28;20529;-80
2022/09/18 03:51:53;;;;;;;7.47;5.73;;;12.20;99.90;;;;;;5075652;28;20484;-81
2022/09/18 03:54:20;;;;;;;10.30;6.47;;;12.30;99.90;;;;;;5065278;28;20471;-82
2022/09/18 03:56:47;;;;;;;14.90;7.07;;;12.30;99.90;;;;;;5074696;28;20471;-80
2022/09/18 03:59:14;;;;;;;10.00;6.30;;;12.30;99.90;;;;;;5086519;28;20444;-81
2022/09/18 04:01:41;;;;;;;11.20;7.57;;;12.30;99.90;;;;;;5066502;28;20504;-80
2022/09/18 04:04:08;;;;;;;12.47;6.90;;;12.20;99.90;;;;;;5064922;28;20571;-81
2022/09/18 04:06:35;;;;;;;9.87;6.93;;;12.20;99.90;;;;;;5086359;28;20474;-80
2022/09/18 04:09:03;;;;;;;6.80;5.53;;;12.30;99.90;;;;;;5086097;28;20443;-79
2022/09/18 04:11:30;;;;;;;11.17;6.27;;;12.30;99.90;;;;;;5067782;28;20459;-79
2022/09/18 04:13:56;;;;;;;10.50;7.40;;;12.30;99.90;;;;;;5063156;28;20480;-80
2022/09/18 04:16:23;;;;;;;12.23;7.50;;;12.30;99.90;;;;;;5084254;28;20443;-81
2022/09/18 04:18:50;;;;;;;12.73;7.47;;;12.20;99.90;;;;;;5093404;28;20433;-79
2022/09/18 04:21:17;;;;;;;8.40;6.40;;;12.20;99.90;;;;;;5093995;28;20496;-81
2022/09/18 04:23:44;;;;;;;7.17;5.33;;;12.20;99.90;;;;;;5086679;28;20528;-80
2022/09/18 04:26:12;;;;;;;12.37;8.47;;;12.20;99.90;;;;;;5074803;28;20468;-81
2022/09/18 04:28:38;;;;;;;11.63;8.13;;;12.20;99.90;;;;;;5075070;28;20998;-81
2022/09/18 04:31:06;;;;;;;11.13;6.90;;;12.10;99.90;;;;;;5073296;28;20528;-80
2022/09/18 04:33:32;;;;;;;11.50;7.90;;;12.20;99.90;;;;;;5070377;28;20478;-80
2022/09/18 04:35:59;;;;;;;14.50;7.17;;;12.10;99.90;;;;;;5068843;28;20459;-81
2022/09/18 04:38:27;;;;;;;12.20;7.17;;;12.00;99.90;;;;;;5068745;28;20540;-80
2022/09/18 04:40:56;;;;;;;11.00;7.90;;;12.10;99.90;;;;;;5085425;28;20447;-80
2022/09/18 04:43:25;;;;;;;11.87;8.40;;;12.10;99.90;;;;;;5081471;28;20476;-80
2022/09/18 04:45:52;;;;;;;18.57;11.10;;;12.20;99.90;;;;;;5061846;28;20444;-79
2022/09/18 04:48:20;;;;;;;13.10;8.00;;;12.10;99.90;;;;;;5065492;28;20502;-80
2022/09/18 04:50:47;;;;;;;15.03;8.73;;;12.00;99.90;;;;;;5054593;28;20956;-79
2022/09/18 04:53:14;;;;;;;12.20;7.90;;;12.00;99.90;;;;;;5052371;28;20522;-79
2022/09/18 04:55:43;;;;;;;12.37;8.60;;;12.10;99.90;;;;;;5052594;28;20468;-79
2022/09/18 04:58:11;;;;;;;9.90;7.17;;;12.10;99.90;;;;;;5052899;28;20533;-79
2022/09/18 05:00:39;;;;;;;10.53;6.47;;;12.10;99.90;;;;;;5070878;28;20452;-78
2022/09/18 05:03:07;;;;;;;12.13;6.07;;;12.00;99.90;;;;;;5071896;28;20443;-80
2022/09/18 05:05:34;;;;;;;7.43;5.17;;;12.10;99.90;;;;;;5058646;28;20445;-79
2022/09/18 05:08:02;;;;;;;9.03;6.00;;;12.00;99.90;;;;;;5056904;28;20944;-78
2022/09/18 05:10:30;;;;;;;8.10;4.67;;;12.00;99.90;;;;;;5072256;28;20454;-79
2022/09/18 05:12:56;;;;;;;13.00;6.23;;;12.10;99.90;;;;;;5075738;28;20453;-78
2022/09/18 05:15:23;;;;;;;8.03;5.10;;;12.10;99.90;;;;;;5060779;28;21044;-78
2022/09/18 05:18:00;;;;;;;8.60;5.37;;;12.00;99.90;;;;;;5055642;28;20559;-77
2022/09/18 05:20:27;;;;;;;15.43;6.37;;;12.00;99.90;;;;;;5055473;28;20459;-78
2022/09/18 05:22:54;;;;;;;8.77;5.37;;;12.00;99.90;;;;;;5064231;28;20448;-79
2022/09/18 05:25:22;;;;;;;6.20;3.50;;;12.00;99.90;;;;;;5069446;28;20479;-79
2022/09/18 05:27:54;;;;;;;8.13;5.23;;;12.00;99.90;;;;;;5077152;28;20540;-78
2022/09/18 05:30:21;;;;;;;7.77;4.73;;;11.90;99.90;;;;;;5076299;28;20454;-78
2022/09/18 05:32:54;;;;;;;12.43;6.30;;;11.90;99.90;;;;;;5078859;28;20456;-80
2022/09/18 05:35:23;;;;;;;10.40;4.03;;;12.00;99.90;;;;;;5074513;28;20505;-78
2022/09/18 05:37:51;;;;;;;7.60;4.47;;;12.00;99.90;;;;;;5070162;28;20531;-80
2022/09/18 05:40:18;;;;;;;11.37;4.60;;;12.00;99.90;;;;;;5087789;28;20465;-81
2022/09/18 05:42:45;;;;;;;5.30;3.80;;;12.00;99.90;;;;;;5086688;28;20445;-79
2022/09/18 05:45:12;;;;;;;12.03;4.33;;;12.10;99.90;;;;;;5070222;28;20496;-80
2022/09/18 05:47:39;;;;;;;5.63;3.60;;;12.10;99.90;;;;;;5068834;28;20445;-80
2022/09/18 05:50:08;;;;;;;8.63;4.43;;;12.20;99.90;;;;;;5071067;28;20461;-79
2022/09/18 05:52:36;;;;;;;10.17;4.37;;;12.20;99.90;;;;;;5066661;28;20446;-79
2022/09/18 05:55:03;;;;;;;8.73;4.67;;;12.20;99.90;;;;;;5058691;28;20529;-78
2022/09/18 05:57:30;;;;;;;7.10;3.63;;;12.20;99.90;;;;;;5059518;28;20478;-79
2022/09/18 05:59:56;;;;;;;9.77;5.57;;;12.20;99.90;;;;;;5061898;28;20454;-79
2022/09/18 06:02:23;;;;;;;6.00;3.93;;;12.10;99.90;;;;;;5077156;22;20436;-79
2022/09/18 06:04:50;;;;;;;6.17;4.73;;;12.30;99.90;;;;;;5057944;28;20526;-78
2022/09/18 06:07:17;;;;;;;15.30;7.50;;;12.30;99.90;;;;;;5046733;28;20472;-78
2022/09/18 06:09:45;;;;;;;11.80;7.80;;;12.10;99.90;;;;;;5046502;28;20458;-78
2022/09/18 06:12:12;;;;;;;15.00;7.77;;;12.10;99.90;;;;;;5053986;28;20450;-79
2022/09/18 06:14:39;;;;;;;9.80;6.57;;;12.20;99.90;;;;;;5056701;28;20889;-78
2022/09/18 06:17:05;;;;;;;10.20;7.53;;;12.20;99.90;;;;;;5044523;28;20551;-78
2022/09/18 06:19:33;;;;;;;12.70;7.83;;;12.20;99.90;;;;;;5061122;28;20474;-78
2022/09/18 06:22:00;;;;;;;14.70;9.63;;;12.20;99.90;;;;;;5035646;28;20464;-78
2022/09/18 06:24:27;;;;;;;12.97;8.27;;;12.20;99.90;;;;;;5035166;28;20487;-77
2022/09/18 06:26:55;;;;;;;11.27;8.13;;;12.30;99.90;;;;;;5038681;28;20461;-78
2022/09/18 06:29:22;;;;;;;10.57;8.10;;;12.20;99.90;;;;;;5033839;28;20550;-78
2022/09/18 06:31:49;;;;;;;12.67;8.50;;;12.30;99.90;;;;;;5038622;28;20540;-79
2022/09/18 06:34:15;;;;;;;13.50;8.37;;;12.40;99.90;;;;;;5039994;28;20480;-78
2022/09/18 06:36:42;;;;;;;12.67;8.10;;;12.30;99.90;;;;;;5036401;28;20448;-78
2022/09/18 06:39:09;;;;;;;9.93;8.20;;;12.40;99.90;;;;;;5039107;28;21080;-78
2022/09/18 06:41:36;;;;;;;16.43;9.40;;;12.40;99.90;;;;;;5040114;28;20495;-79
2022/09/18 06:44:04;;;;;;;16.10;8.33;;;12.40;99.90;;;;;;5034286;28;20567;-78
2022/09/18 06:46:31;;;;;;;12.27;9.10;;;12.40;99.90;;;;;;5038482;28;20456;-78
2022/09/18 06:48:58;;;;;;;10.13;7.40;;;12.30;99.90;;;;;;5037728;28;20480;-78
2022/09/18 06:51:25;;;;;;;9.40;6.30;;;12.30;99.90;;;;;;5039895;28;20970;-78
2022/09/18 06:53:52;;;;;;;10.47;7.43;;;12.20;99.90;;;;;;5038611;28;20540;-78
2022/09/18 06:56:18;;;;;;;8.03;6.70;;;12.20;99.90;;;;;;5044007;28;20484;-78
2022/09/18 06:58:45;;;;;;;11.10;7.90;;;12.30;99.90;;;;;;5038723;28;20545;-78
2022/09/18 07:01:13;;;;;;;8.47;6.23;;;12.40;99.90;;;;;;5040675;28;20485;-79
2022/09/18 07:03:40;;;;;;;9.27;6.20;;;12.40;99.90;;;;;;5042942;28;20483;-80
2022/09/18 07:06:09;;;;;;;12.83;8.20;;;12.40;99.90;;;;;;5043162;28;20450;-80
2022/09/18 07:08:36;;;;;;;10.70;8.20;;;12.30;99.90;;;;;;5054354;28;20543;-79
2022/09/18 07:11:03;;;;;;;8.67;6.20;;;12.30;99.90;;;;;;5051213;28;20480;-79
2022/09/18 07:13:31;;;;;;;10.93;7.13;;;12.30;99.90;;;;;;5053945;28;20507;-79
2022/09/18 07:16:01;;;;;;;10.93;6.53;;;12.40;99.90;;;;;;5050746;28;20825;-80
2022/09/18 07:18:29;;;;;;;14.50;7.90;;;12.30;99.90;;;;;;5057536;28;20563;-79
2022/09/18 07:20:58;;;;;;;10.33;7.20;;;12.30;99.90;;;;;;5049319;28;20489;-79
2022/09/18 07:23:25;;;;;;;9.33;7.10;;;12.40;99.90;;;;;;5054704;28;20465;-80
2022/09/18 07:25:52;;;;;;;11.93;8.20;;;12.40;99.90;;;;;;5052014;28;20490;-80
2022/09/18 07:28:19;;;;;;;12.83;7.83;;;12.40;99.90;;;;;;5051749;28;20453;-80
2022/09/18 07:30:46;;;;;;;10.07;8.10;;;12.40;99.90;;;;;;5052371;28;20526;-79
2022/09/18 07:33:13;;;;;;;12.67;7.00;;;12.50;99.90;;;;;;5063437;28;20471;-81
2022/09/18 07:35:41;;;;;;;7.90;7.10;;;12.30;99.90;;;;;;5070521;28;20490;-80
2022/09/18 07:38:09;;;;;;;11.57;8.07;;;12.30;99.90;;;;;;5056302;28;20552;-82
2022/09/18 07:40:36;;;;;;;10.43;8.37;;;12.50;99.90;;;;;;5056778;28;20437;-81
2022/09/18 07:43:05;;;;;;;11.73;8.73;;;12.50;99.90;;;;;;5055971;28;20465;-80
2022/09/18 07:45:33;;;;;;;11.00;8.07;;;12.50;99.90;;;;;;5056953;28;20463;-80
2022/09/18 07:48:01;;;;;;;11.27;7.50;;;12.60;99.90;;;;;;5048521;28;20454;-80
2022/09/18 07:50:28;;;;;;;7.87;6.47;;;12.60;99.90;;;;;;5062943;28;20462;-79
2022/09/18 07:52:58;;;;;;;10.57;4.93;;;12.60;99.90;;;;;;5048382;28;20561;-80
2022/09/18 07:55:27;;;;;;;13.77;6.37;;;12.60;99.90;;;;;;5047396;28;20482;-80
2022/09/18 07:57:56;;;;;;;9.03;4.37;;;12.70;99.90;;;;;;5056505;28;20491;-80
2022/09/18 08:00:23;;;;;;;10.13;4.50;;;12.60;99.90;;;;;;5052550;28;20488;-80
2022/09/18 08:02:51;;;;;;;5.17;3.30;;;12.60;99.90;;;;;;5045465;28;20517;-78
2022/09/18 08:05:19;;;;;;;4.30;3.10;;;12.70;99.90;;;;;;5048803;28;20463;-81
2022/09/18 08:07:46;;;;;;;4.53;2.30;;;12.70;99.90;;;;;;5045504;28;20569;-80
2022/09/18 08:10:14;;;;;;;4.07;2.43;;;12.50;99.90;;;;;;5044309;28;20452;-80
2022/09/18 08:12:41;;;;;;;3.80;2.60;;;12.50;99.90;;;;;;5052493;28;20469;-80
2022/09/18 08:15:09;;;;;;;6.23;2.43;;;12.40;99.90;;;;;;5061889;28;20478;-81
2022/09/18 08:17:36;;;;;;;3.90;1.90;;;12.40;99.90;;;;;;5051715;28;20483;-80
2022/09/18 08:20:03;;;;;;;4.70;2.50;;;12.40;99.90;;;;;;5063700;28;20492;-81
2022/09/18 08:22:37;;;;;;;2.63;1.67;;;12.50;99.90;;;;;;5050846;28;20484;-82
2022/09/18 08:25:05;;;;;;;6.10;2.00;;;12.50;99.90;;;;;;5049682;28;20481;-81
2022/09/18 08:27:35;;;;;;;6.17;2.07;;;12.50;99.90;;;;;;5062221;28;20790;-81
2022/09/18 08:30:02;;;;;;;9.10;2.27;;;12.50;99.90;;;;;;5048945;28;20479;-80
2022/09/18 08:32:29;;;;;;;2.13;1.40;;;12.40;99.90;;;;;;5047998;28;20468;-82
2022/09/18 08:34:56;;;;;;;3.10;1.47;;;12.40;99.90;;;;;;5059338;28;20502;-82
2022/09/18 08:37:23;;;;;;;8.00;1.40;;;12.40;99.90;;;;;;5060049;28;20602;-83
2022/09/18 08:39:50;;;;;;;5.60;1.63;;;12.40;99.90;;;;;;5060720;28;20533;-82
2022/09/18 08:42:26;;;;;;;3.83;1.80;;;12.50;99.90;;;;;;5066490;28;20484;-83
2022/09/18 08:44:59;;;;;;;4.97;2.00;;;12.50;99.90;;;;;;5043090;28;20469;-83
2022/09/18 08:47:46;;;;;;;6.27;2.33;;;12.50;99.90;;;;;;5055892;28;20508;-84
2022/09/18 08:50:20;;;;;;;8.40;2.67;;;12.60;99.90;;;;;;5047202;28;20458;-82
2022/09/18 08:52:56;;;;;;;4.00;2.30;;;12.60;99.90;;;;;;5035492;28;20539;-80
2022/09/18 08:55:26;;;;;;;4.67;2.57;;;12.60;99.90;;;;;;5046293;28;20465;-81
2022/09/18 08:57:58;;;;;;;7.60;2.70;;;12.60;99.90;;;;;;5038580;28;20460;-80
2022/09/18 09:00:37;;;;;;;6.20;3.10;;;12.60;99.90;;;;;;5046491;28;20441;-80
2022/09/18 09:03:20;;;;;;;5.80;3.23;;;12.60;99.90;;;;;;5063718;28;20486;-83
2022/09/18 09:05:57;;;;;;;7.23;4.70;;;12.60;99.90;;;;;;5068194;28;20490;-84
2022/09/18 09:08:46;;;;;;;6.93;4.20;;;12.50;99.90;;;;;;5062114;28;20526;-81
2022/09/18 09:11:32;;;;;;;9.13;5.50;;;12.50;99.90;;;;;;5058584;28;20895;-81
2022/09/18 09:14:27;;;;;;;7.63;4.30;;;12.50;99.90;;;;;;5048463;28;20480;-82
2022/09/18 09:17:04;;;;;;;6.03;5.10;;;12.60;99.90;;;;;;5048829;28;20542;-82
2022/09/18 09:19:43;;;;;;;8.77;5.20;;;12.50;99.90;;;;;;5050194;28;20487;-82
2022/09/18 09:22:19;;;;;;;6.07;4.60;;;12.50;99.90;;;;;;5068355;28;20505;-83
2022/09/18 09:25:05;;;;;;;5.50;4.20;;;12.50;99.90;;;;;;5045642;28;20824;-83
2022/09/18 09:27:40;;;;;;;7.93;5.80;;;12.60;99.90;;;;;;5048202;28;20480;-84
2022/09/18 09:30:15;;;;;;;7.60;5.93;;;12.70;99.90;;;;;;5064632;28;20454;-83
2022/09/18 09:32:47;;;;;;;13.43;6.47;;;12.70;99.90;;;;;;5051044;28;20486;-84
2022/09/18 09:35:24;;;;;;;8.03;4.60;;;12.70;99.90;;;;;;5041907;28;20450;-83
2022/09/18 09:37:54;;;;;;;9.87;4.83;;;12.70;99.90;;;;;;5047399;28;20458;-84
2022/09/18 09:40:31;;;;;;;4.90;4.30;;;12.70;99.90;;;;;;5055543;28;20464;-86
2022/09/18 09:43:07;;;;;;;7.90;3.97;;;12.70;99.90;;;;;;5050488;28;20528;-82
2022/09/18 09:45:42;;;;;;;5.67;2.70;;;12.70;99.90;;;;;;5038455;28;20451;-88
2022/09/18 09:48:26;;;;;;;4.43;2.27;;;12.60;99.90;;;;;;5039068;28;20535;-82
2022/09/18 09:50:58;;;;;;;5.50;2.93;;;12.50;99.90;;;;;;5033759;28;20466;-82
2022/09/18 09:53:26;;;;;;;4.43;2.43;;;12.40;99.90;;;;;;5031503;28;20476;-81
2022/09/18 09:56:09;;;;;;;4.60;2.53;;;12.30;99.90;;;;;;5037681;28;20457;-83
2022/09/18 09:58:46;;;;;;;6.97;2.60;;;12.30;99.90;;;;;;5037685;28;20471;-82
2022/09/18 10:01:24;;;;;;;3.20;1.73;;;12.30;99.90;;;;;;5038497;28;20453;-83
2022/09/18 10:04:03;;;;;;;4.33;2.53;;;12.30;99.90;;;;;;5036486;28;21062;-83
2022/09/18 10:06:44;;;;;;;2.87;1.67;;;12.30;99.90;;;;;;5056057;28;20535;-81
2022/09/18 10:09:21;;;;;;;3.40;2.20;;;12.30;99.90;;;;;;5058761;28;20461;-81
2022/09/18 10:12:04;;;;;;;5.23;2.67;;;12.20;99.90;;;;;;5046822;28;20465;-82
2022/09/18 10:14:37;;;;;;;4.13;2.30;;;12.10;99.90;;;;;;5050731;28;20974;-81
2022/09/18 10:17:05;;;;;;;6.13;2.53;;;12.20;99.90;;;;;;5058243;28;20455;-81
2022/09/18 10:19:44;;;;;;;4.60;3.03;;;12.30;99.90;;;;;;5039151;28;20857;-80
2022/09/18 10:22:21;;;;;;;4.90;2.70;;;12.30;99.90;;;;;;5041312;28;20503;-82
2022/09/18 10:25:01;;;;;;;6.80;3.00;;;12.30;99.90;;;;;;5049737;28;20506;-82
2022/09/18 10:27:28;;;;;;;6.33;3.60;;;12.40;99.90;;;;;;5041272;28;20841;-82
2022/09/18 10:29:55;;;;;;;6.93;4.43;;;12.40;99.90;;;;;;5057157;28;20474;-84
2022/09/18 10:32:34;;;;;;;7.77;5.80;;;12.40;99.90;;;;;;5052574;28;20539;-82
2022/09/18 10:35:42;;;;;;;6.37;4.67;;;12.50;99.90;;;;;;5045784;28;20473;-84
2022/09/18 10:38:29;;;;;;;8.40;5.10;;;12.50;99.90;;;;;;5057983;28;20499;-84
2022/09/18 10:40:56;;;;;;;9.20;6.00;;;12.50;99.90;;;;;;5056847;28;20451;-84
2022/09/18 10:43:23;;;;;;;7.63;6.00;;;12.60;99.90;;;;;;5044048;28;20567;-81
2022/09/18 10:45:53;;;;;;;9.90;5.73;;;12.60;99.90;;;;;;5047858;28;20455;-82
2022/09/18 10:48:24;;;;;;;7.63;5.20;;;12.80;99.90;;;;;;5045259;28;20451;-81
2022/09/18 10:50:58;;;;;;;10.50;3.40;;;12.80;99.90;;;;;;5045484;28;20452;-83
2022/09/18 10:53:29;;;;;;;4.30;3.03;;;12.80;99.90;;;;;;5054252;28;20476;-82
2022/09/18 10:56:03;;;;;;;4.27;2.77;;;12.90;99.90;;;;;;5053817;28;20550;-83
2022/09/18 10:58:32;;;;;;;5.73;2.90;;;12.80;99.90;;;;;;5059176;28;20928;-84
2022/09/18 11:01:02;;;;;;;5.63;2.00;;;12.70;99.90;;;;;;5058211;28;20531;-82
2022/09/18 11:03:40;;;;;;;4.93;2.80;;;12.80;99.90;;;;;;5048684;28;20490;-82
2022/09/18 11:06:22;;;;;;;6.53;3.10;;;12.80;99.90;;;;;;5041574;28;20464;-83
2022/09/18 11:08:52;;;;;;;5.00;2.60;;;12.90;99.90;;;;;;5035671;28;20448;-83
2022/09/18 11:11:26;;;;;;;3.47;1.77;;;13.00;99.90;;;;;;5056709;28;20469;-84
2022/09/18 11:13:58;;;;;;;6.03;2.23;;;12.90;99.90;;;;;;5051132;28;20485;-82
2022/09/18 11:16:28;;;;;;;3.10;1.80;;;12.90;99.90;;;;;;5056098;28;20446;-82
2022/09/18 11:19:04;;;;;;;3.30;1.40;;;12.90;99.90;;;;;;5041062;28;21003;-83
2022/09/18 11:21:32;;;;;;;2.50;1.50;;;12.90;99.90;;;;;;5024475;28;20802;-82
2022/09/18 11:24:05;;;;;;;4.80;2.27;;;12.90;99.90;;;;;;5035872;28;20566;-85
2022/09/18 11:26:32;;;;;;;4.07;1.90;;;12.90;99.90;;;;;;5056744;28;20470;-85
2022/09/18 11:29:05;;;;;;;2.53;1.47;;;13.00;99.90;;;;;;5042755;28;20825;-81
2022/09/18 11:31:42;;;;;;;2.10;0.90;;;13.00;99.90;;;;;;5038411;28;20492;-84
2022/09/18 11:34:22;;;;;;;3.93;1.40;;;13.00;99.90;;;;;;5051992;28;20556;-84
2022/09/18 11:36:52;;;;;;;1.87;1.20;;;13.10;99.90;;;;;;5053275;28;20546;-82
2022/09/18 11:39:24;;;;;;;5.00;1.50;;;13.10;99.90;;;;;;5058521;28;20494;-82
2022/09/18 11:41:52;;;;;;;3.10;1.50;;;13.10;99.90;;;;;;5043413;28;20523;-81
2022/09/18 11:44:24;;;;;;;6.03;1.47;;;13.20;99.90;;;;;;5039186;28;20510;-82
2022/09/18 11:47:08;;;;;;;2.83;1.20;;;13.20;99.90;;;;;;5065587;28;20477;-81
2022/09/18 11:49:39;;;;;;;2.93;1.33;;;13.20;99.90;;;;;;5054328;28;20443;-84
2022/09/18 11:52:15;;;;;;;4.43;1.47;;;13.10;99.90;;;;;;5035716;28;20463;-81
2022/09/18 11:54:50;;;;;;;4.23;1.70;;;13.20;99.90;;;;;;5046783;28;20461;-82
2022/09/18 11:57:20;;;;;;;3.53;1.50;;;13.10;99.90;;;;;;5046415;28;20523;-82
2022/09/18 11:59:52;;;;;;;3.80;1.80;;;13.10;99.90;;;;;;5038657;28;20490;-81
2022/09/18 12:02:26;;;;;;;4.87;1.90;;;13.10;99.90;;;;;;5053184;28;20580;-83
2022/09/18 12:04:57;;;;;;;4.77;1.60;;;13.10;99.90;;;;;;5037911;28;20456;-82
2022/09/18 12:07:32;;;;;;;5.30;2.13;;;13.10;99.90;;;;;;5038589;28;20454;-81
2022/09/18 12:10:07;;;;;;;3.60;2.00;;;13.20;99.90;;;;;;5047730;28;20455;-83
2022/09/18 12:12:41;;;;;;;5.90;1.83;;;13.30;99.90;;;;;;5051660;28;20474;-81
2022/09/18 12:15:16;;;;;;;5.17;2.27;;;13.20;99.90;;;;;;5041071;28;20506;-81
2022/09/18 12:17:49;;;;;;;4.90;2.20;;;13.20;99.90;;;;;;5025710;28;20461;-82
2022/09/18 12:20:22;;;;;;;6.00;2.43;;;13.10;99.90;;;;;;5030854;28;20488;-83
2022/09/18 12:22:58;;;;;;;5.53;2.00;;;13.10;99.90;;;;;;5047205;28;20476;-81
2022/09/18 12:25:37;;;;;;;2.40;1.80;;;13.10;99.90;;;;;;5045764;28;20462;-82
2022/09/18 12:28:13;;;;;;;5.03;2.30;;;13.10;99.90;;;;;;5055848;28;20895;-82
2022/09/18 12:30:47;;;;;;;6.30;2.93;;;13.20;99.90;;;;;;5042928;28;20453;-84
2022/09/18 12:33:29;;;;;;;4.37;2.20;;;13.10;99.90;;;;;;5044081;28;20471;-82
2022/09/18 12:36:32;;;;;;;4.17;2.07;;;13.20;99.90;;;;;;5035079;28;20453;-82
2022/09/18 12:39:15;;;;;;;4.30;3.10;;;13.10;99.90;;;;;;5016151;28;21114;-80
2022/09/18 12:41:58;;;;;;;7.40;2.30;;;13.20;99.90;;;;;;5055906;28;20443;-81
2022/09/18 12:44:54;;;;;;;7.50;2.40;;;13.10;99.90;;;;;;5052265;28;20903;-85
2022/09/18 12:47:42;;;;;;;4.30;2.27;;;13.00;99.90;;;;;;5015724;28;20472;-81
2022/09/18 12:50:42;;;;;;;8.83;2.40;;;13.00;99.90;;;;;;5029022;28;20449;-86
2022/09/18 12:53:28;;;;;;;5.50;1.53;;;13.00;99.90;;;;;;5015627;28;20503;-84
2022/09/18 12:56:23;;;;;;;4.30;1.67;;;13.00;99.90;;;;;;5039575;28;20448;-81
2022/09/18 12:59:31;;;;;;;3.93;2.00;;;13.10;99.90;;;;;;5036734;28;20832;-82
2022/09/18 13:02:05;;;;;;;4.37;1.87;;;13.10;99.90;;;;;;5015005;28;20958;-83
2022/09/18 13:04:37;;;;;;;3.80;1.70;;;13.00;99.90;;;;;;5038921;28;20494;-82